Lebo, Pennsylvania
Current Conditions -  °F | °C
As of 11:56 PM on Friday 26 Dec 2014 (Local Time) from KCXY Reporting Station
Clear Clear  
Wind Chill: 28°   Ceiling: Unl
Heat Index: 28°   Visibility: 9mi
Dew Point: 26°   Wind: 3mph
Humidity: 92%   Direction: 220°SW
Pressure: 30.24"   Gusts: NA
Location:  40.3086°N, 77.3363°W
Report Text: KCXY 270456Z AUTO 22003KT 9SM CLR M02/M03 A3024 RMK AO2 SLP245 T10221033 401001028
Loading
Personal Weather Stations






























Interactive Weather Map New forecast layout! Learn more

10-Day Weather Forecast

Advertisements
Track Severe Weather on mobile